Aviation Digital Data Service (ADDS)

Output produced by TAFs form (1921 UTC 21 April 2018)
found at http://aviationweather.gov/adds/tafs/
 
METAR text: ROAH 211900Z 12008KT 9000 -SHRA FEW006 BKN013 23/21 Q1014 RMK 1ST006 6CU013 A2997
Conditions at: ROAH (NAHA (CIV/JASDF), JP) observed 1900 UTC 21 April 2018
Temperature: 23.0°C (73°F)
Dewpoint: 21.0°C (70°F) [RH = 89%]
Pressure (altimeter): 29.94 inches Hg (1014.0 mb)
Winds: from the ESE (120 degrees) at 9 MPH (8 knots; 4.2 m/s)
Visibility: 6 miles (9 km)
Ceiling: 1300 feet AGL
Clouds: few clouds at 600 feet AGL
broken clouds at 1300 feet AGL
Weather: -SHRA  (light rain showers)

Forecast for: ROAH (NAHA (CIV/JASDF), JP)
Text: TAF ROAH 211706Z 2118/2300 11014KT 9999 FEW008 BKN015
Forecast period: 1800 UTC 21 April 2018 to 0000 UTC 23 April 2018
Forecast type: FROM: standard forecast or significant change
Winds: from the ESE (110 degrees) at 16 MPH (14 knots; 7.3 m/s)
Visibility: 6 or more miles (10+ km)
Ceiling: 1500 feet AGL
Clouds: few clouds at 800 feet AGL
broken clouds at 1500 feet AGL
Weather: no significant weather forecast for this period
Forecast for: ROAH (NAHA (CIV/JASDF), JP)
Text: TAF ROAH 211706Z 2118/2300 11014KT 9999 FEW008 BKN015
Forecast period: 1800 UTC 21 April 2018 to 0000 UTC 23 April 2018
Forecast type: FROM: standard forecast or significant change
Winds: from the ESE (110 degrees) at 16 MPH (14 knots; 7.3 m/s)
Visibility: 6 or more miles (10+ km)
Ceiling: 1500 feet AGL
Clouds: few clouds at 800 feet AGL
broken clouds at 1500 feet AGL
Weather: no significant weather forecast for this period
Forecast for: ROAH (NAHA (CIV/JASDF), JP)
Text: TAF ROAH 211706Z 2118/2300 11014KT 9999 FEW008 BKN015
Forecast period: 1800 to 1900 UTC 21 April 2018
Forecast type: TEMPORARY: The following changes expected for less than half the time period
Ceiling: 800 feet AGL
Clouds: few clouds at 500 feet AGL
broken clouds at 800 feet AGL
Weather: no significant weather forecast for this period
Forecast for: ROAH (NAHA (CIV/JASDF), JP)
Text: TAF ROAH 211706Z 2118/2300 11014KT 9999 FEW008 BKN015
Forecast period: 1800 to 1900 UTC 21 April 2018
Forecast type: TEMPORARY: The following changes expected for less than half the time period
Ceiling: 800 feet AGL
Clouds: few clouds at 500 feet AGL
broken clouds at 800 feet AGL
Weather: no significant weather forecast for this period
Forecast for: ROAH (NAHA (CIV/JASDF), JP)
Text: TAF ROAH 211706Z 2118/2300 11014KT 9999 FEW008 BKN015
Forecast period: 1900 UTC 21 April 2018 to 0100 UTC 22 April 2018
Forecast type: TEMPORARY: The following changes expected for less than half the time period
Winds: from the ESE (110 degrees) at 17 MPH (15 knots; 7.8 m/s)
gusting to 29 MPH (25 knots; 13.0 m/s)
Visibility: 1.86 miles (2.99 km)
Ceiling: 800 feet AGL
Clouds: few clouds at 500 feet AGL
broken clouds at 800 feet AGL
scattered clouds at 2000 feet AGL
Weather: TSRA  (rain associated with thunderstorm(s))
Forecast for: ROAH (NAHA (CIV/JASDF), JP)
Text: TAF ROAH 211706Z 2118/2300 11014KT 9999 FEW008 BKN015
Forecast period: 1900 UTC 21 April 2018 to 0100 UTC 22 April 2018
Forecast type: TEMPORARY: The following changes expected for less than half the time period
Winds: from the ESE (110 degrees) at 17 MPH (15 knots; 7.8 m/s)
gusting to 29 MPH (25 knots; 13.0 m/s)
Visibility: 1.86 miles (2.99 km)
Ceiling: 800 feet AGL
Clouds: few clouds at 500 feet AGL
broken clouds at 800 feet AGL
scattered clouds at 2000 feet AGL
Weather: TSRA  (rain associated with thunderstorm(s))
Forecast for: ROAH (NAHA (CIV/JASDF), JP)
Text: TAF ROAH 211706Z 2118/2300 11014KT 9999 FEW008 BKN015
Forecast period: 0100 to 0300 UTC 22 April 2018
Forecast type: TEMPORARY: The following changes expected for less than half the time period
Ceiling: 800 feet AGL
Clouds: few clouds at 500 feet AGL
broken clouds at 800 feet AGL
Weather: no significant weather forecast for this period
Forecast for: ROAH (NAHA (CIV/JASDF), JP)
Text: TAF ROAH 211706Z 2118/2300 11014KT 9999 FEW008 BKN015
Forecast period: 0100 to 0300 UTC 22 April 2018
Forecast type: TEMPORARY: The following changes expected for less than half the time period
Ceiling: 800 feet AGL
Clouds: few clouds at 500 feet AGL
broken clouds at 800 feet AGL
Weather: no significant weather forecast for this period
Forecast for: ROAH (NAHA (CIV/JASDF), JP)
Text: TAF ROAH 211706Z 2118/2300 11014KT 9999 FEW008 BKN015
Forecast period: 1800 UTC 22 April 2018 to 0000 UTC 23 April 2018
Forecast type: TEMPORARY: The following changes expected for less than half the time period
Ceiling: 800 feet AGL
Clouds: few clouds at 500 feet AGL
broken clouds at 800 feet AGL
Weather: no significant weather forecast for this period
Forecast for: ROAH (NAHA (CIV/JASDF), JP)
Text: TAF ROAH 211706Z 2118/2300 11014KT 9999 FEW008 BKN015
Forecast period: 1800 UTC 22 April 2018 to 0000 UTC 23 April 2018
Forecast type: TEMPORARY: The following changes expected for less than half the time period
Ceiling: 800 feet AGL
Clouds: few clouds at 500 feet AGL
broken clouds at 800 feet AGL
Weather: no significant weather forecast for this period